createdAt,value
2022-10-18T00:01:09.754Z,76.68
2022-10-18T00:06:16.442Z,76.70
2022-10-18T00:08:44.718Z,76.80
2022-10-18T00:11:13.219Z,76.78
2022-10-18T00:13:41.761Z,76.85
2022-10-18T00:16:15.399Z,76.85
2022-10-18T00:18:45.511Z,76.80
2022-10-18T00:21:21.092Z,76.87
2022-10-18T00:23:50.789Z,76.82
2022-10-18T00:26:28.261Z,76.77
2022-10-18T00:29:00.622Z,76.89
2022-10-18T00:31:33.710Z,76.95
2022-10-18T00:34:06.127Z,77.02
2022-10-18T00:36:34.976Z,76.99
2022-10-18T00:39:06.229Z,76.97
2022-10-18T00:41:37.979Z,77.02
2022-10-18T00:44:12.401Z,77.06
2022-10-18T00:46:47.208Z,77.06
2022-10-18T00:49:37.006Z,77.16
2022-10-18T00:52:13.391Z,77.21
2022-10-18T00:54:44.353Z,77.17
2022-10-18T00:57:14.159Z,77.14
2022-10-18T00:59:43.679Z,77.19
2022-10-18T01:02:14.972Z,77.16
2022-10-18T01:04:45.177Z,77.13
2022-10-18T01:07:25.927Z,77.07
2022-10-18T01:10:26.891Z,77.13
2022-10-18T01:13:25.603Z,77.21
2022-10-18T01:16:42.597Z,77.20
2022-10-18T01:20:02.970Z,77.19
2022-10-18T01:22:43.348Z,77.22
2022-10-18T01:25:39.237Z,77.19
2022-10-18T01:28:47.902Z,77.26
2022-10-18T01:31:22.923Z,77.31
2022-10-18T01:36:45.194Z,77.40
2022-10-18T01:39:28.163Z,77.44
2022-10-18T01:41:59.623Z,77.46
2022-10-18T01:44:31.999Z,77.58
2022-10-18T01:47:01.408Z,77.67
2022-10-18T01:49:29.856Z,77.74
2022-10-18T01:51:58.072Z,77.78
2022-10-18T01:54:34.764Z,77.91
2022-10-18T01:57:42.770Z,77.88
2022-10-18T02:00:36.654Z,78.15
2022-10-18T02:03:28.322Z,78.23
2022-10-18T02:06:27.106Z,78.28
2022-10-18T02:09:09.589Z,78.45
2022-10-18T02:11:41.460Z,78.46
2022-10-18T02:14:13.165Z,78.70
2022-10-18T02:16:57.778Z,78.83
2022-10-18T02:19:42.581Z,78.92
2022-10-18T02:22:14.976Z,78.93
2022-10-18T02:24:51.260Z,78.87
2022-10-18T02:27:19.890Z,79.04
2022-10-18T02:29:48.995Z,79.15
2022-10-18T02:32:38.529Z,79.15
2022-10-18T02:35:22.161Z,79.16
2022-10-18T02:37:52.774Z,79.14
2022-10-18T02:40:21.431Z,79.09
2022-10-18T02:42:55.704Z,79.14
2022-10-18T02:45:25.508Z,79.16
2022-10-18T02:47:53.867Z,79.29
2022-10-18T02:50:22.161Z,79.42
2022-10-18T02:52:50.391Z,79.57
2022-10-18T02:55:18.689Z,79.78
2022-10-18T02:57:46.915Z,79.93
2022-10-18T03:00:15.807Z,79.88
2022-10-18T03:02:44.239Z,80.11
2022-10-18T03:05:12.454Z,80.15
2022-10-18T03:07:40.677Z,80.29
2022-10-18T03:10:09.268Z,80.44
2022-10-18T03:12:37.462Z,80.56
2022-10-18T03:15:06.235Z,80.84
2022-10-18T03:17:34.722Z,80.81
2022-10-18T03:20:03.235Z,80.86
2022-10-18T03:22:31.519Z,80.82
2022-10-18T03:24:59.764Z,80.86
2022-10-18T03:27:28.013Z,81.13
2022-10-18T03:29:56.664Z,81.23
2022-10-18T03:32:24.987Z,81.38
2022-10-18T03:34:53.209Z,81.43
2022-10-18T03:37:22.303Z,81.58
2022-10-18T03:39:50.518Z,81.60
2022-10-18T03:42:18.734Z,81.64
2022-10-18T03:44:47.128Z,81.72
2022-10-18T03:47:15.360Z,81.70
2022-10-18T03:49:43.571Z,81.86
2022-10-18T03:52:11.780Z,82.04
2022-10-18T03:54:40.009Z,82.11
2022-10-18T03:57:08.187Z,82.20
2022-10-18T03:59:36.495Z,82.20
2022-10-18T04:02:05.059Z,82.28
2022-10-18T04:04:33.350Z,82.44
2022-10-18T04:07:01.583Z,82.53
2022-10-18T04:09:29.763Z,82.63
2022-10-18T04:11:57.980Z,82.87
2022-10-18T04:14:26.525Z,82.79
2022-10-18T04:16:55.198Z,82.87
2022-10-18T04:19:23.797Z,83.08
2022-10-18T04:21:52.194Z,83.04
2022-10-18T04:24:20.628Z,83.27
2022-10-18T04:26:49.192Z,83.19
2022-10-18T04:29:17.535Z,83.40
2022-10-18T04:31:45.934Z,83.47
2022-10-18T04:34:14.609Z,83.52
2022-10-18T04:36:42.824Z,83.47
2022-10-18T04:39:11.080Z,83.61
2022-10-18T04:41:39.879Z,83.66
2022-10-18T04:44:08.640Z,83.85
2022-10-18T04:46:38.085Z,84.02
2022-10-18T04:49:06.611Z,84.11
2022-10-18T04:51:35.753Z,84.22
2022-10-18T04:54:05.049Z,84.24
2022-10-18T04:59:18.687Z,84.59
2022-10-18T05:01:47.570Z,84.65
2022-10-18T05:04:16.265Z,84.77
2022-10-18T05:06:45.214Z,84.91
2022-10-18T05:09:19.101Z,84.90
2022-10-18T05:11:48.248Z,85.16
2022-10-18T05:14:17.537Z,85.45
2022-10-18T05:16:45.960Z,85.46
2022-10-18T05:19:14.800Z,85.57
2022-10-18T05:21:43.716Z,85.55
2022-10-18T05:24:13.338Z,85.54
2022-10-18T05:26:42.533Z,85.51
2022-10-18T05:29:14.110Z,85.62
2022-10-18T05:31:42.549Z,85.63
2022-10-18T05:34:13.984Z,85.74
2022-10-18T05:36:46.044Z,85.84
2022-10-18T05:39:14.713Z,85.78
2022-10-18T05:41:43.399Z,85.99
2022-10-18T05:44:15.397Z,86.12
2022-10-18T05:46:44.685Z,86.19
2022-10-18T05:49:13.574Z,86.22
2022-10-18T05:51:41.880Z,86.43
2022-10-18T05:54:14.246Z,86.69
2022-10-18T05:56:44.964Z,86.70
2022-10-18T05:59:13.990Z,86.80
2022-10-18T06:01:43.072Z,86.85
2022-10-18T06:04:11.926Z,87.03
2022-10-18T06:06:40.274Z,87.14
2022-10-18T06:09:09.081Z,87.27
2022-10-18T06:11:37.416Z,87.45
2022-10-18T06:14:08.222Z,87.44
2022-10-18T06:19:10.208Z,87.81
2022-10-18T06:21:38.364Z,87.96
2022-10-18T06:24:06.847Z,88.05
2022-10-18T06:26:35.209Z,88.24
2022-10-18T06:29:03.620Z,88.45
2022-10-18T06:31:31.914Z,88.52
2022-10-18T06:34:00.975Z,88.57
2022-10-18T06:36:29.296Z,88.71
2022-10-18T06:38:57.741Z,88.99
2022-10-18T06:41:26.412Z,89.33
2022-10-18T06:43:57.511Z,89.45
2022-10-18T06:46:26.465Z,89.30
2022-10-18T06:48:54.672Z,89.29
2022-10-18T06:51:22.843Z,89.21
2022-10-18T06:53:59.665Z,89.16
2022-10-18T06:56:35.362Z,89.27
2022-10-18T06:59:04.623Z,89.37
2022-10-18T07:01:33.179Z,89.50
2022-10-18T07:04:01.602Z,89.62
2022-10-18T07:06:29.871Z,89.77
2022-10-18T07:08:58.236Z,89.62
2022-10-18T07:11:26.934Z,89.56
2022-10-18T07:14:02.996Z,89.59
2022-10-18T07:16:33.347Z,89.52
2022-10-18T07:19:02.056Z,89.28
2022-10-18T07:21:30.564Z,89.43
2022-10-18T07:23:58.828Z,89.39
2022-10-18T07:26:33.291Z,89.34
2022-10-18T07:29:09.543Z,89.30
2022-10-18T07:31:38.783Z,89.02
2022-10-18T07:34:11.581Z,88.94
2022-10-18T07:36:40.652Z,88.34
2022-10-18T07:39:08.982Z,88.12
2022-10-18T07:41:37.479Z,87.87
2022-10-18T07:44:05.839Z,87.70
2022-10-18T07:46:34.173Z,87.73
2022-10-18T07:49:02.502Z,87.75
2022-10-18T07:51:32.795Z,87.47
2022-10-18T07:54:01.023Z,87.35
2022-10-18T07:56:29.332Z,87.08
2022-10-18T07:58:57.722Z,86.86
2022-10-18T08:01:26.329Z,86.83
2022-10-18T08:03:54.724Z,86.82
2022-10-18T08:06:23.477Z,86.48
2022-10-18T08:08:52.325Z,86.41
2022-10-18T08:11:24.622Z,86.26
2022-10-18T08:13:54.370Z,86.21
2022-10-18T08:16:28.619Z,86.15
2022-10-18T08:19:00.139Z,85.99
2022-10-18T08:21:28.547Z,86.03
2022-10-18T08:23:56.740Z,85.59
2022-10-18T08:26:25.187Z,85.28
2022-10-18T08:29:03.624Z,84.92
2022-10-18T08:31:38.021Z,84.43
2022-10-18T08:34:06.218Z,84.38
2022-10-18T08:36:34.457Z,84.57
2022-10-18T08:39:03.273Z,84.31
2022-10-18T08:41:37.255Z,84.05
2022-10-18T08:44:20.651Z,84.03
2022-10-18T08:46:53.041Z,83.66
2022-10-18T08:49:41.780Z,83.57
2022-10-18T08:52:35.977Z,83.19
2022-10-18T08:55:38.652Z,82.66
2022-10-18T08:58:19.927Z,82.14
2022-10-18T09:01:22.382Z,81.58
2022-10-18T09:04:34.472Z,81.37
2022-10-18T09:07:20.703Z,80.84
2022-10-18T09:10:16.021Z,80.45
2022-10-18T09:13:12.366Z,80.13
2022-10-18T09:15:58.592Z,79.81
2022-10-18T09:19:12.717Z,79.56
2022-10-18T09:21:53.462Z,79.42
2022-10-18T09:24:46.039Z,79.14
2022-10-18T09:27:20.571Z,78.77
2022-10-18T09:30:50.561Z,78.60
2022-10-18T09:33:58.320Z,77.84
2022-10-18T09:36:35.567Z,77.10
2022-10-18T09:39:16.421Z,76.50
2022-10-18T09:42:11.693Z,75.96
2022-10-18T09:45:03.261Z,75.99
2022-10-18T09:47:45.558Z,76.12
2022-10-18T09:50:48.839Z,75.82
2022-10-18T09:53:46.051Z,74.97
2022-10-18T09:56:30.539Z,74.29
2022-10-18T09:58:59.512Z,73.80
2022-10-18T10:01:31.631Z,73.52
2022-10-18T10:03:59.831Z,73.37
2022-10-18T10:06:31.113Z,72.88
2022-10-18T10:09:15.390Z,72.23
2022-10-18T10:11:55.412Z,72.17
2022-10-18T10:14:27.559Z,72.04
2022-10-18T10:17:03.523Z,71.81
2022-10-18T10:20:02.075Z,71.71
2022-10-18T10:22:42.223Z,71.69
2022-10-18T10:25:38.090Z,71.32
2022-10-18T10:28:18.366Z,71.47
2022-10-18T10:30:46.593Z,71.49
2022-10-18T10:33:37.661Z,71.15
2022-10-18T10:36:18.522Z,70.55
2022-10-18T10:39:12.610Z,70.00
2022-10-18T10:41:41.558Z,69.60
2022-10-18T10:44:19.710Z,69.45
2022-10-18T10:46:50.307Z,68.79
2022-10-18T10:49:40.584Z,68.83
2022-10-18T10:52:27.996Z,68.88
2022-10-18T10:55:16.709Z,68.92
2022-10-18T10:57:49.943Z,68.68
2022-10-18T11:00:44.371Z,68.36
2022-10-18T11:03:30.070Z,68.43
2022-10-18T11:06:00.833Z,68.26
2022-10-18T11:08:41.506Z,68.09
2022-10-18T11:11:28.441Z,68.10
2022-10-18T11:14:20.983Z,68.54
2022-10-18T11:17:13.984Z,68.65
2022-10-18T11:20:07.527Z,68.60
2022-10-18T11:22:54.010Z,68.15
2022-10-18T11:25:28.576Z,67.95
2022-10-18T11:28:31.203Z,67.58
2022-10-18T11:31:25.025Z,67.36
2022-10-18T11:34:51.543Z,67.21
2022-10-18T11:37:38.647Z,67.51
2022-10-18T11:40:50.730Z,67.61
2022-10-18T11:44:01.743Z,67.81
2022-10-18T11:47:00.684Z,67.71
2022-10-18T11:50:02.242Z,67.91
2022-10-18T11:52:42.723Z,67.92
2022-10-18T11:55:32.944Z,67.87
2022-10-18T11:58:32.083Z,68.22
2022-10-18T12:01:30.831Z,68.23
2022-10-18T12:04:20.250Z,68.40
2022-10-18T12:06:54.559Z,68.22
2022-10-18T12:09:46.167Z,68.31
2022-10-18T12:12:29.794Z,68.30
2022-10-18T12:15:19.944Z,67.99
2022-10-18T12:18:17.362Z,67.69
2022-10-18T12:20:50.061Z,67.22
2022-10-18T12:23:38.478Z,66.97
2022-10-18T12:26:10.562Z,66.01
2022-10-18T12:28:51.739Z,65.71
2022-10-18T12:31:48.196Z,65.66
2022-10-18T12:34:22.602Z,65.50
2022-10-18T12:37:21.415Z,65.38
2022-10-18T12:40:15.541Z,65.19
2022-10-18T12:42:48.067Z,64.99
2022-10-18T12:45:25.793Z,64.96
2022-10-18T12:47:59.427Z,64.69
2022-10-18T12:50:39.755Z,64.57
2022-10-18T12:53:20.273Z,64.63
2022-10-18T12:55:52.395Z,64.97
2022-10-18T12:58:29.439Z,64.84
2022-10-18T13:01:05.104Z,65.14
2022-10-18T13:03:55.730Z,65.30
2022-10-18T13:06:24.461Z,65.56
2022-10-18T13:09:21.025Z,65.59
2022-10-18T13:11:50.157Z,65.90
2022-10-18T13:15:24.799Z,66.16
2022-10-18T13:18:09.342Z,66.51
2022-10-18T13:20:49.643Z,66.78
2022-10-18T13:23:59.383Z,67.11
2022-10-18T13:26:58.206Z,66.89
2022-10-18T13:29:59.736Z,66.63
2022-10-18T13:32:52.496Z,66.51
2022-10-18T13:35:57.812Z,66.15
2022-10-18T13:38:49.561Z,66.09
2022-10-18T13:43:52.956Z,66.51
2022-10-18T13:46:44.580Z,66.96
2022-10-18T13:49:36.769Z,66.95
2022-10-18T13:52:38.423Z,66.73
2022-10-18T13:55:50.871Z,66.64
2022-10-18T13:59:05.649Z,66.79
2022-10-18T14:01:54.002Z,67.15
2022-10-18T14:05:02.084Z,67.64
2022-10-18T14:07:44.727Z,68.13
2022-10-18T14:10:57.414Z,68.47
2022-10-18T14:16:53.199Z,69.19
2022-10-18T14:19:54.406Z,69.29
2022-10-18T14:22:35.553Z,69.45
2022-10-18T14:25:18.168Z,69.62
2022-10-18T14:27:50.871Z,70.04
2022-10-18T14:30:35.119Z,70.05
2022-10-18T14:33:04.134Z,70.28
2022-10-18T14:35:35.303Z,70.49
2022-10-18T14:38:03.634Z,70.87
2022-10-18T14:40:40.778Z,71.14
2022-10-18T14:43:08.948Z,72.08
2022-10-18T14:45:37.233Z,73.01
2022-10-18T14:48:26.648Z,75.63
2022-10-18T14:51:00.559Z,76.89
2022-10-18T15:07:03.701Z,80.42
2022-10-18T15:09:35.005Z,82.17
2022-10-18T15:12:07.083Z,83.38
2022-10-18T15:14:36.815Z,84.09
2022-10-18T15:17:20.574Z,84.50
2022-10-18T15:20:05.912Z,85.11
2022-10-18T15:22:34.813Z,85.31
2022-10-18T15:25:05.856Z,85.18
2022-10-18T15:27:38.436Z,85.30
2022-10-18T15:30:17.929Z,85.73
2022-10-18T15:32:55.773Z,86.09
2022-10-18T15:35:29.210Z,86.33
2022-10-18T15:38:03.581Z,86.51
2022-10-18T15:40:37.153Z,86.58
2022-10-18T15:43:23.602Z,87.03
2022-10-18T15:46:00.115Z,87.37
2022-10-18T15:48:35.621Z,88.36
2022-10-18T15:51:28.881Z,88.37
2022-10-18T15:53:57.196Z,88.71
2022-10-18T15:56:34.058Z,88.86
2022-10-18T15:59:22.354Z,89.24
2022-10-18T16:01:50.897Z,89.90
2022-10-18T16:04:23.285Z,90.00
2022-10-18T16:06:54.214Z,90.30
2022-10-18T16:09:25.643Z,90.59
2022-10-18T16:12:00.759Z,90.77
2022-10-18T16:14:31.924Z,90.89
2022-10-18T16:17:06.419Z,91.19
2022-10-18T16:19:34.743Z,91.17
2022-10-18T16:22:06.619Z,91.29
2022-10-18T16:24:35.343Z,91.51
2022-10-18T16:27:04.862Z,91.73
2022-10-18T16:29:33.516Z,91.92
2022-10-18T16:32:01.932Z,92.03
2022-10-18T16:34:32.159Z,92.21
2022-10-18T16:37:00.391Z,92.21
2022-10-18T16:39:32.087Z,92.40
2022-10-18T16:42:00.730Z,92.86
2022-10-18T16:44:28.920Z,92.85
2022-10-18T16:46:57.125Z,93.11
2022-10-18T16:49:26.830Z,93.20
2022-10-18T16:51:55.484Z,93.54
2022-10-18T16:54:23.751Z,93.95
2022-10-18T16:56:52.550Z,94.06
2022-10-18T16:59:27.234Z,94.35
2022-10-18T17:01:55.862Z,94.61
2022-10-18T17:04:24.337Z,94.97
2022-10-18T17:06:57.182Z,95.29
2022-10-18T17:09:25.749Z,95.58
2022-10-18T17:11:53.987Z,95.82
2022-10-18T17:14:22.799Z,96.01
2022-10-18T17:16:54.722Z,96.25
2022-10-18T17:19:25.532Z,96.50
2022-10-18T17:21:53.714Z,96.81
2022-10-18T17:24:21.896Z,96.96
2022-10-18T17:26:50.086Z,97.38
2022-10-18T17:29:18.365Z,97.65
2022-10-18T17:31:46.536Z,97.80
2022-10-18T17:34:21.239Z,98.02
2022-10-18T17:36:49.824Z,98.33
2022-10-18T17:39:18.107Z,98.61
2022-10-18T17:41:46.328Z,98.90
2022-10-18T17:44:14.529Z,99.17
2022-10-18T17:46:42.723Z,99.54
2022-10-18T17:49:10.963Z,99.64
2022-10-18T17:51:40.602Z,99.92
2022-10-18T17:54:09.685Z,100.00
2022-10-18T17:56:40.428Z,100.00
2022-10-18T17:59:09.245Z,100.00
2022-10-18T18:01:37.529Z,100.00
2022-10-18T18:04:06.349Z,100.00
2022-10-18T18:06:36.964Z,100.00
2022-10-18T18:09:16.770Z,100.00
2022-10-18T18:11:49.875Z,100.00
2022-10-18T18:14:18.346Z,100.00
2022-10-18T18:16:47.692Z,100.00
2022-10-18T18:19:19.067Z,100.00
2022-10-18T18:21:47.380Z,100.00
2022-10-18T18:24:17.127Z,100.00
2022-10-18T18:26:45.347Z,100.00
2022-10-18T18:29:13.568Z,100.00
2022-10-18T18:31:43.720Z,100.00
2022-10-18T18:34:13.190Z,100.00
2022-10-18T18:36:45.090Z,100.00
2022-10-18T18:39:29.665Z,100.00
2022-10-18T18:41:57.886Z,100.00
2022-10-18T18:44:26.191Z,100.00
2022-10-18T18:49:04.253Z,100.00
2022-10-18T18:51:33.364Z,100.00
2022-10-18T18:54:01.867Z,100.00
2022-10-18T18:56:30.164Z,100.00
2022-10-18T18:58:59.527Z,100.00
2022-10-18T19:01:33.539Z,100.00
2022-10-18T19:04:02.367Z,100.00
2022-10-18T19:06:36.752Z,100.00
2022-10-18T19:09:22.234Z,100.00
2022-10-18T19:11:53.209Z,100.00
2022-10-18T19:14:24.917Z,100.00
2022-10-18T19:16:58.765Z,100.00
2022-10-18T19:19:30.566Z,100.00
2022-10-18T19:22:03.677Z,100.00
2022-10-18T19:24:32.142Z,100.00
2022-10-18T19:27:05.293Z,100.00
2022-10-18T19:29:39.976Z,100.00
2022-10-18T19:32:15.098Z,100.00
2022-10-18T19:34:45.904Z,100.00
2022-10-18T19:37:17.728Z,100.00
2022-10-18T19:39:46.241Z,100.00
2022-10-18T19:42:21.124Z,100.00
2022-10-18T19:44:54.471Z,100.00
2022-10-18T19:47:22.668Z,100.00
2022-10-18T19:49:52.709Z,100.00
2022-10-18T19:52:20.936Z,100.00
2022-10-18T19:54:49.312Z,100.00
2022-10-18T19:57:17.631Z,100.00
2022-10-18T19:59:45.939Z,100.00
2022-10-18T20:02:15.189Z,100.00
2022-10-18T20:04:43.443Z,100.00
2022-10-18T20:07:11.594Z,100.00
2022-10-18T20:09:39.968Z,100.00
2022-10-18T20:12:08.435Z,100.00
2022-10-18T20:14:36.635Z,100.00
2022-10-18T20:17:06.037Z,100.00
2022-10-18T20:19:34.238Z,100.00
2022-10-18T20:22:02.422Z,100.00
2022-10-18T20:24:30.651Z,100.00
2022-10-18T20:26:58.845Z,100.00
2022-10-18T20:29:27.132Z,100.00
2022-10-18T20:31:55.787Z,100.00
2022-10-18T20:34:26.218Z,100.00
2022-10-18T20:36:55.414Z,100.00
2022-10-18T20:39:24.284Z,100.00
2022-10-18T20:41:52.530Z,100.00
2022-10-18T20:44:22.596Z,100.00
2022-10-18T20:46:50.791Z,100.00
2022-10-18T20:49:19.424Z,100.00
2022-10-18T20:51:47.611Z,100.00
2022-10-18T20:54:16.066Z,100.00
2022-10-18T20:56:44.492Z,100.00
2022-10-18T20:59:13.747Z,100.00
2022-10-18T21:01:42.164Z,100.00
2022-10-18T21:04:10.867Z,100.00
2022-10-18T21:06:44.164Z,100.00
2022-10-18T21:09:18.882Z,100.00
2022-10-18T21:11:51.160Z,100.00
2022-10-18T21:14:22.903Z,100.00
2022-10-18T21:16:52.923Z,100.00
2022-10-18T21:19:25.477Z,100.00
2022-10-18T21:21:58.800Z,100.00
2022-10-18T21:24:27.493Z,100.00
2022-10-18T21:26:56.698Z,100.00
2022-10-18T21:29:25.005Z,100.00
2022-10-18T21:31:55.797Z,100.00
2022-10-18T21:34:24.043Z,100.00
2022-10-18T21:36:52.283Z,100.00
2022-10-18T21:41:52.545Z,100.00
2022-10-18T21:44:20.965Z,100.00
2022-10-18T21:46:49.267Z,100.00
2022-10-18T21:49:17.801Z,100.00
2022-10-18T21:51:46.080Z,100.00
2022-10-18T21:54:16.496Z,100.00
2022-10-18T21:56:44.843Z,100.00
2022-10-18T21:59:14.063Z,100.00
2022-10-18T22:01:44.201Z,100.00
2022-10-18T22:04:22.723Z,100.00
2022-10-18T22:06:52.076Z,100.00
2022-10-18T22:09:22.028Z,100.00
2022-10-18T22:11:53.506Z,100.00
2022-10-18T22:14:22.783Z,100.00
2022-10-18T22:16:51.144Z,100.00
2022-10-18T22:19:20.375Z,100.00
2022-10-18T22:21:49.018Z,100.00
2022-10-18T22:24:17.241Z,100.00
2022-10-18T22:26:46.816Z,100.00
2022-10-18T22:29:19.347Z,100.00
2022-10-18T22:31:51.938Z,100.00
2022-10-18T22:34:23.584Z,100.00
2022-10-18T22:36:51.737Z,100.00
2022-10-18T22:39:20.563Z,100.00
2022-10-18T22:41:54.270Z,100.00
2022-10-18T22:44:23.089Z,100.00
2022-10-18T22:46:51.317Z,100.00
2022-10-18T22:49:19.543Z,100.00
2022-10-18T22:51:47.710Z,100.00
2022-10-18T22:54:16.137Z,100.00
2022-10-18T22:56:44.397Z,100.00
2022-10-18T22:59:12.600Z,100.00
2022-10-18T23:01:40.765Z,100.00
2022-10-18T23:04:10.268Z,100.00
2022-10-18T23:06:39.895Z,100.00
2022-10-18T23:09:10.971Z,100.00
2022-10-18T23:11:39.198Z,100.00
2022-10-18T23:14:07.528Z,100.00
2022-10-18T23:16:36.285Z,100.00
2022-10-18T23:19:05.047Z,100.00
2022-10-18T23:21:34.691Z,100.00
2022-10-18T23:24:03.518Z,100.00
2022-10-18T23:26:32.479Z,100.00
2022-10-18T23:29:00.910Z,100.00
2022-10-18T23:31:32.812Z,100.00
2022-10-18T23:34:04.690Z,100.00
2022-10-18T23:36:34.042Z,100.00
2022-10-18T23:39:04.398Z,100.00
2022-10-18T23:41:33.158Z,100.00
2022-10-18T23:44:02.553Z,100.00
2022-10-18T23:46:30.804Z,100.00
2022-10-18T23:48:59.055Z,100.00
2022-10-18T23:51:27.245Z,100.00
2022-10-18T23:53:55.452Z,100.00
2022-10-18T23:56:24.059Z,100.00
2022-10-18T23:58:52.274Z,100.00
